Time;durP1;ratioP1;P1;durP2;ratioP2;P2;SDS_P1;SDS_P2;PMS_P1;PMS_P2;Temp;Humidity;BMP_temperature;BMP_pressure;BME280_temperature;BME280_humidity;BME280_pressure;Samples;Min_cycle;Max_cycle;Signal;HPM_P1;HPM_P2
2023/09/12 00:01:05;;;;;;;5.93;5.17;;;21.50;99.90;;;;;;4963438;28;20184;-64
2023/09/12 00:03:31;;;;;;;5.77;4.13;;;21.50;99.90;;;;;;4962824;28;20436;-64
2023/09/12 00:05:59;;;;;;;4.53;4.13;;;21.50;99.90;;;;;;4963450;28;20948;-64
2023/09/12 00:08:25;;;;;;;4.90;4.27;;;21.50;99.90;;;;;;4963534;28;20997;-64
2023/09/12 00:11:11;;;;;;;4.10;3.70;;;21.50;99.90;;;;;;4945402;28;20501;-64
2023/09/12 00:13:41;;;;;;;4.07;3.77;;;21.50;99.90;;;;;;4962734;28;20436;-64
2023/09/12 00:16:09;;;;;;;4.17;3.37;;;21.50;99.90;;;;;;4963735;28;20427;-64
2023/09/12 00:18:35;;;;;;;6.40;3.40;;;21.50;99.90;;;;;;4963452;28;20519;-64
2023/09/12 00:21:01;;;;;;;3.70;3.40;;;21.60;99.90;;;;;;4963672;28;20433;-64
2023/09/12 00:23:27;;;;;;;5.30;4.20;;;21.60;99.90;;;;;;4963264;28;21128;-64
2023/09/12 00:25:53;;;;;;;4.30;3.90;;;21.50;99.90;;;;;;4945886;28;20220;-64
2023/09/12 00:28:19;;;;;;;4.00;3.60;;;21.40;99.90;;;;;;4963244;28;20599;-64
2023/09/12 00:30:45;;;;;;;3.93;3.60;;;21.50;99.90;;;;;;4963105;28;20180;-64
2023/09/12 00:33:11;;;;;;;4.60;3.50;;;21.40;99.90;;;;;;4946647;28;21024;-64
2023/09/12 00:35:36;;;;;;;4.03;3.63;;;21.30;99.90;;;;;;4929036;28;20189;-64
2023/09/12 00:38:02;;;;;;;4.50;3.80;;;21.30;99.90;;;;;;4964185;28;20547;-64
2023/09/12 00:40:28;;;;;;;4.07;3.77;;;21.30;99.90;;;;;;4963412;28;20834;-64
2023/09/12 00:42:55;;;;;;;6.90;3.50;;;21.30;99.90;;;;;;4966215;28;20446;-64
2023/09/12 00:45:20;;;;;;;4.10;3.80;;;21.20;99.90;;;;;;4966113;28;20432;-64
2023/09/12 00:47:47;;;;;;;4.23;3.90;;;21.20;99.90;;;;;;4966035;28;20479;-64
2023/09/12 00:50:14;;;;;;;4.63;3.93;;;21.20;99.90;;;;;;4966723;28;20180;-64
2023/09/12 00:52:42;;;;;;;6.30;4.23;;;21.20;99.90;;;;;;4948710;28;20463;-63
2023/09/12 00:55:08;;;;;;;5.17;4.67;;;21.20;99.90;;;;;;4966739;28;21300;-64
2023/09/12 00:57:35;;;;;;;4.30;3.50;;;21.20;99.90;;;;;;4966600;28;20809;-64
2023/09/12 01:00:10;;;;;;;3.80;3.40;;;21.20;99.90;;;;;;4966576;28;20448;-64
2023/09/12 01:02:44;;;;;;;7.30;4.90;;;21.30;99.90;;;;;;4965473;28;20494;-64
2023/09/12 01:05:11;;;;;;;5.20;4.33;;;21.30;99.90;;;;;;4966509;28;20471;-64
2023/09/12 01:07:37;;;;;;;5.10;4.57;;;21.30;99.90;;;;;;4965453;28;20471;-64
2023/09/12 01:10:07;;;;;;;5.60;5.00;;;21.30;99.90;;;;;;4966349;28;20506;-64
2023/09/12 01:12:33;;;;;;;5.00;4.50;;;21.30;99.90;;;;;;4965382;28;20451;-64
2023/09/12 01:14:59;;;;;;;5.20;4.70;;;21.30;99.90;;;;;;4948888;28;20516;-64
2023/09/12 01:17:25;;;;;;;5.43;4.93;;;21.30;99.90;;;;;;4965848;28;20451;-64
2023/09/12 01:19:52;;;;;;;5.30;4.80;;;21.30;99.90;;;;;;4966274;28;20199;-64
2023/09/12 01:22:26;;;;;;;5.03;4.63;;;21.30;99.90;;;;;;4966602;28;20536;-63
2023/09/12 01:25:30;;;;;;;5.00;4.60;;;21.20;99.90;;;;;;4966001;28;20435;-64
2023/09/12 01:27:58;;;;;;;5.60;5.10;;;21.20;99.90;;;;;;4966187;28;20475;-64
2023/09/12 01:30:27;;;;;;;5.50;5.00;;;21.20;99.90;;;;;;4966032;28;20539;-64
2023/09/12 01:32:53;;;;;;;5.23;4.80;;;21.20;99.90;;;;;;4965616;28;20451;-64
2023/09/12 01:35:19;;;;;;;5.70;4.90;;;21.20;99.90;;;;;;4965621;28;20531;-64
2023/09/12 01:37:45;;;;;;;6.57;5.50;;;21.10;99.90;;;;;;4965380;28;20427;-64
2023/09/12 01:40:11;;;;;;;6.10;5.53;;;21.00;99.90;;;;;;4966222;28;20680;-64
2023/09/12 01:42:40;;;;;;;6.23;5.67;;;21.00;99.90;;;;;;4965131;28;20188;-64
2023/09/12 01:45:09;;;;;;;6.17;5.57;;;21.00;99.90;;;;;;4966228;28;20455;-64
2023/09/12 01:47:35;;;;;;;5.57;5.07;;;20.90;99.90;;;;;;4964730;28;20476;-64
2023/09/12 01:50:03;;;;;;;7.33;5.60;;;21.00;99.90;;;;;;4948656;28;21005;-64
2023/09/12 01:52:29;;;;;;;7.03;5.30;;;20.90;99.90;;;;;;4947436;28;20448;-64
2023/09/12 01:54:56;;;;;;;5.57;5.07;;;21.00;99.90;;;;;;4964941;28;20436;-64
2023/09/12 01:57:22;;;;;;;6.80;6.10;;;21.00;99.90;;;;;;4965622;28;20432;-64
2023/09/12 01:59:49;;;;;;;6.70;6.10;;;21.00;99.90;;;;;;4965478;28;20443;-64
2023/09/12 02:02:17;;;;;;;7.43;6.63;;;21.10;99.90;;;;;;4965285;28;20950;-64
2023/09/12 02:05:15;;;;;;;7.50;6.80;;;21.20;99.90;;;;;;4964892;28;20424;-64
2023/09/12 02:07:42;;;;;;;7.83;7.13;;;21.20;99.90;;;;;;4964790;28;20514;-64
2023/09/12 02:10:09;;;;;;;7.00;6.40;;;21.20;99.90;;;;;;4965388;28;20451;-64
2023/09/12 02:12:35;;;;;;;10.63;8.50;;;21.20;99.90;;;;;;4964277;28;20466;-64
2023/09/12 02:15:01;;;;;;;8.10;7.40;;;21.00;99.90;;;;;;4965250;28;20481;-64
2023/09/12 02:17:27;;;;;;;8.20;7.40;;;21.00;99.90;;;;;;4964500;28;20432;-63
2023/09/12 02:19:53;;;;;;;9.50;8.40;;;20.90;99.90;;;;;;4965134;28;21301;-64
2023/09/12 02:22:18;;;;;;;11.63;8.23;;;20.90;99.90;;;;;;4965244;28;20188;-63
2023/09/12 02:24:44;;;;;;;9.50;7.57;;;20.90;99.90;;;;;;4964841;28;20312;-63
2023/09/12 02:27:10;;;;;;;8.00;7.30;;;20.90;99.90;;;;;;4965099;28;20212;-64
2023/09/12 02:29:38;;;;;;;10.17;9.17;;;20.90;99.90;;;;;;4964197;28;20271;-64
2023/09/12 02:32:04;;;;;;;8.83;7.60;;;21.00;99.90;;;;;;4964801;28;20177;-64
2023/09/12 02:34:30;;;;;;;9.00;8.10;;;20.90;99.90;;;;;;4964158;28;20950;-64
2023/09/12 02:36:55;;;;;;;9.50;8.60;;;20.90;99.90;;;;;;4965282;28;20431;-64
2023/09/12 02:39:21;;;;;;;9.47;8.57;;;20.90;99.90;;;;;;4964882;28;20658;-64
2023/09/12 02:41:46;;;;;;;11.70;10.23;;;20.80;99.90;;;;;;4964234;28;20226;-64
2023/09/12 02:44:12;;;;;;;13.83;10.13;;;20.70;99.90;;;;;;4964942;28;20192;-64
2023/09/12 02:46:38;;;;;;;11.23;10.07;;;20.80;99.90;;;;;;4964480;28;20902;-64
2023/09/12 02:49:03;;;;;;;11.30;9.57;;;20.70;99.90;;;;;;4965061;28;20693;-64
2023/09/12 02:51:29;;;;;;;12.57;11.37;;;20.70;99.90;;;;;;4963956;28;20189;-64
2023/09/12 02:53:55;;;;;;;14.83;11.00;;;20.80;99.90;;;;;;4964627;28;20189;-65
2023/09/12 02:56:21;;;;;;;11.53;10.43;;;20.70;99.90;;;;;;4964385;28;20242;-64
2023/09/12 02:58:47;;;;;;;13.67;10.00;;;20.70;99.90;;;;;;4964350;28;20283;-64
2023/09/12 03:01:17;;;;;;;12.00;10.80;;;20.70;99.90;;;;;;4964281;28;21287;-65
2023/09/12 03:03:46;;;;;;;13.50;11.00;;;20.80;99.90;;;;;;4963842;28;20423;-65
2023/09/12 03:06:13;;;;;;;11.70;10.50;;;20.80;99.90;;;;;;4964790;28;20435;-64
2023/09/12 03:08:43;;;;;;;12.03;10.87;;;20.80;99.90;;;;;;4963527;28;20510;-64
2023/09/12 03:11:09;;;;;;;12.70;11.03;;;20.70;99.90;;;;;;4964285;28;20460;-64
2023/09/12 03:13:37;;;;;;;13.40;10.97;;;20.60;99.90;;;;;;4963245;28;20435;-64
2023/09/12 03:16:03;;;;;;;11.20;10.20;;;20.60;99.90;;;;;;4964200;28;20439;-64
2023/09/12 03:18:28;;;;;;;12.17;10.20;;;20.70;99.90;;;;;;4963851;28;20945;-64
2023/09/12 03:20:54;;;;;;;10.97;9.80;;;20.70;99.90;;;;;;4964246;28;20524;-65
2023/09/12 03:23:20;;;;;;;12.63;11.33;;;20.70;99.90;;;;;;4946654;28;20993;-64
2023/09/12 03:25:46;;;;;;;12.77;11.53;;;20.70;99.90;;;;;;4963549;28;20642;-64
2023/09/12 03:28:12;;;;;;;13.80;11.83;;;20.70;99.90;;;;;;4964038;28;20602;-64
2023/09/12 03:30:39;;;;;;;13.37;11.97;;;20.70;99.90;;;;;;4963600;28;20775;-65
2023/09/12 03:33:05;;;;;;;16.53;12.17;;;20.70;99.90;;;;;;4964378;28;20851;-64
2023/09/12 03:35:34;;;;;;;12.80;11.60;;;20.70;99.90;;;;;;4962774;28;20432;-65
2023/09/12 03:38:00;;;;;;;11.93;10.13;;;20.80;99.90;;;;;;4964209;28;21311;-64
2023/09/12 03:40:29;;;;;;;14.10;11.90;;;20.80;99.90;;;;;;4963158;28;20550;-64
2023/09/12 03:42:55;;;;;;;13.60;12.10;;;20.90;99.90;;;;;;4963888;28;20518;-64
2023/09/12 03:45:20;;;;;;;13.47;12.03;;;21.00;99.90;;;;;;4963496;28;20442;-64
2023/09/12 03:47:46;;;;;;;14.30;12.00;;;21.00;99.90;;;;;;4963752;28;20212;-64
2023/09/12 03:50:13;;;;;;;15.73;12.83;;;21.00;99.90;;;;;;4964102;28;20196;-64
2023/09/12 03:52:39;;;;;;;14.00;11.80;;;20.90;99.90;;;;;;4945815;28;21057;-64
2023/09/12 03:55:05;;;;;;;14.00;11.43;;;20.90;99.90;;;;;;4964046;28;20447;-65
2023/09/12 03:57:31;;;;;;;14.47;11.37;;;21.00;99.90;;;;;;4962815;28;20180;-64
2023/09/12 03:59:57;;;;;;;12.70;11.40;;;21.00;99.90;;;;;;4963863;28;20555;-65
2023/09/12 04:02:23;;;;;;;14.90;12.00;;;20.90;99.90;;;;;;4962978;28;20439;-64
2023/09/12 04:04:49;;;;;;;11.67;10.00;;;20.80;99.90;;;;;;4963849;28;21129;-64
2023/09/12 04:07:14;;;;;;;11.93;10.73;;;20.70;99.90;;;;;;4963692;28;20470;-64
2023/09/12 04:09:40;;;;;;;11.30;10.20;;;20.70;99.90;;;;;;4963330;28;20201;-64
2023/09/12 04:12:06;;;;;;;11.40;10.30;;;20.70;99.90;;;;;;4964050;28;20188;-64
2023/09/12 04:14:32;;;;;;;9.67;8.77;;;20.70;99.90;;;;;;4962586;28;20646;-64
2023/09/12 04:16:58;;;;;;;10.80;9.67;;;20.60;99.90;;;;;;4965896;28;20507;-64
2023/09/12 04:19:25;;;;;;;9.87;8.87;;;20.60;99.90;;;;;;4966974;28;20196;-64
2023/09/12 04:21:51;;;;;;;9.77;8.67;;;20.70;99.90;;;;;;4967133;28;20265;-64
2023/09/12 04:24:17;;;;;;;11.43;9.57;;;20.70;99.90;;;;;;4967000;28;20451;-65
2023/09/12 04:26:43;;;;;;;10.10;8.60;;;20.60;99.90;;;;;;4966442;28;21242;-64
2023/09/12 04:29:10;;;;;;;10.33;9.23;;;20.60;99.90;;;;;;4967256;28;20479;-64
2023/09/12 04:31:36;;;;;;;9.83;8.83;;;20.70;99.90;;;;;;4966321;28;20501;-64
2023/09/12 04:34:01;;;;;;;9.33;8.30;;;20.70;99.90;;;;;;4967542;28;20431;-64
2023/09/12 04:36:27;;;;;;;10.23;8.67;;;20.70;99.90;;;;;;4966391;28;20188;-64
2023/09/12 04:38:53;;;;;;;9.17;7.50;;;20.70;99.90;;;;;;4967494;28;20189;-64
2023/09/12 04:41:18;;;;;;;11.20;8.27;;;20.70;99.90;;;;;;4966591;28;20184;-65
2023/09/12 04:43:44;;;;;;;8.60;7.70;;;20.70;99.90;;;;;;4966050;28;20184;-64
2023/09/12 04:46:11;;;;;;;9.47;8.40;;;20.70;99.90;;;;;;4966886;28;20912;-64
2023/09/12 04:48:37;;;;;;;10.50;8.40;;;20.70;99.90;;;;;;4963714;28;20483;-64
2023/09/12 04:51:03;;;;;;;7.77;6.60;;;20.60;99.90;;;;;;4966542;28;20468;-65
2023/09/12 04:53:34;;;;;;;8.50;7.20;;;20.60;99.90;;;;;;4963770;28;20521;-64
2023/09/12 04:56:03;;;;;;;8.23;7.43;;;20.60;99.90;;;;;;4963407;28;20685;-64
2023/09/12 04:58:29;;;;;;;8.17;7.37;;;20.60;99.90;;;;;;4965164;28;20454;-64
2023/09/12 05:00:57;;;;;;;8.77;6.87;;;20.60;99.90;;;;;;4949492;28;20447;-65
2023/09/12 05:03:23;;;;;;;9.47;6.80;;;20.70;99.90;;;;;;4965796;28;20926;-64
2023/09/12 05:05:50;;;;;;;8.00;7.17;;;20.70;99.90;;;;;;4966716;28;20538;-64
2023/09/12 05:08:16;;;;;;;7.27;6.40;;;20.70;99.90;;;;;;4966175;28;20483;-64
2023/09/12 05:10:44;;;;;;;9.23;6.50;;;20.70;99.90;;;;;;4965936;28;20451;-64
2023/09/12 05:13:10;;;;;;;8.30;7.40;;;20.70;99.90;;;;;;4966466;28;20807;-64
2023/09/12 05:15:36;;;;;;;8.00;7.20;;;20.60;99.90;;;;;;4965488;28;20420;-65
2023/09/12 05:18:02;;;;;;;8.33;7.43;;;20.60;99.90;;;;;;4966868;28;20188;-65
2023/09/12 05:20:28;;;;;;;9.27;8.37;;;20.60;99.90;;;;;;4965404;28;20432;-64
2023/09/12 05:22:54;;;;;;;8.37;7.53;;;20.60;99.90;;;;;;4966640;28;20439;-64
2023/09/12 05:25:19;;;;;;;9.63;7.20;;;20.60;99.90;;;;;;4965324;28;20189;-64
2023/09/12 05:27:45;;;;;;;8.40;7.60;;;20.60;99.90;;;;;;4963642;28;20236;-64
2023/09/12 05:30:11;;;;;;;8.40;7.60;;;20.60;99.90;;;;;;4966176;28;20188;-64
2023/09/12 05:32:37;;;;;;;9.30;7.17;;;20.60;99.90;;;;;;4965490;28;20760;-64
2023/09/12 05:35:04;;;;;;;7.63;6.93;;;20.60;99.90;;;;;;4966147;28;20515;-64
2023/09/12 05:37:29;;;;;;;11.50;8.00;;;20.60;99.90;;;;;;4965199;28;20471;-65
2023/09/12 05:39:55;;;;;;;9.50;8.33;;;20.60;99.90;;;;;;4966259;28;20815;-64
2023/09/12 05:42:22;;;;;;;9.00;8.03;;;20.60;99.90;;;;;;4965018;28;20188;-64
2023/09/12 05:44:49;;;;;;;10.77;8.70;;;20.70;99.90;;;;;;4965846;28;20190;-65
2023/09/12 05:47:15;;;;;;;10.37;8.63;;;20.70;99.90;;;;;;4964688;28;20506;-64
2023/09/12 05:49:41;;;;;;;11.70;9.60;;;20.70;99.90;;;;;;4964651;28;20428;-64
2023/09/12 05:52:07;;;;;;;10.77;9.00;;;20.60;99.90;;;;;;4964209;28;20470;-64
2023/09/12 05:54:33;;;;;;;9.93;9.03;;;20.60;99.90;;;;;;4964227;28;20454;-64
2023/09/12 05:56:58;;;;;;;9.97;8.97;;;20.40;99.90;;;;;;4965255;28;20181;-64
2023/09/12 05:59:24;;;;;;;10.60;9.50;;;20.40;99.90;;;;;;4947086;28;20188;-64
2023/09/12 06:01:50;;;;;;;9.93;8.73;;;20.30;99.90;;;;;;4964993;28;20681;-64
2023/09/12 06:04:15;;;;;;;9.90;8.90;;;20.20;99.90;;;;;;4965015;28;20189;-64
2023/09/12 06:06:41;;;;;;;11.60;9.60;;;20.30;99.90;;;;;;4965415;28;20819;-64
2023/09/12 06:09:08;;;;;;;10.07;9.07;;;20.30;99.90;;;;;;4965434;28;20254;-64
2023/09/12 06:11:34;;;;;;;9.87;8.97;;;20.40;99.90;;;;;;4963995;28;20203;-64
2023/09/12 06:14:00;;;;;;;10.07;9.00;;;20.40;99.90;;;;;;4964323;28;20812;-64
2023/09/12 06:16:26;;;;;;;11.73;9.30;;;20.40;99.90;;;;;;4962364;28;20654;-64
2023/09/12 06:18:53;;;;;;;9.73;8.63;;;20.50;99.90;;;;;;4964873;28;20324;-64
2023/09/12 06:21:21;;;;;;;9.60;8.70;;;20.50;99.90;;;;;;4964306;28;20436;-64
2023/09/12 06:24:06;;;;;;;11.63;10.27;;;20.40;99.90;;;;;;4964844;28;20475;-64
2023/09/12 06:26:32;;;;;;;10.97;9.87;;;20.30;99.90;;;;;;4963753;28;20435;-64
2023/09/12 06:28:58;;;;;;;10.57;9.03;;;20.20;99.90;;;;;;4964636;28;20984;-64
2023/09/12 06:31:24;;;;;;;12.17;10.60;;;20.20;99.90;;;;;;4963911;28;20204;-64
2023/09/12 06:33:50;;;;;;;12.73;11.43;;;20.20;99.90;;;;;;4963610;28;20451;-64
2023/09/12 06:36:15;;;;;;;13.80;11.10;;;20.30;99.90;;;;;;4963988;28;20192;-64
2023/09/12 06:38:41;;;;;;;14.00;11.30;;;20.30;99.90;;;;;;4964453;28;20670;-64
2023/09/12 06:41:07;;;;;;;13.77;11.50;;;20.30;99.90;;;;;;4964113;28;20196;-64
2023/09/12 06:43:32;;;;;;;12.37;10.97;;;20.30;99.90;;;;;;4963648;28;22861;-64
2023/09/12 06:45:58;;;;;;;13.17;11.20;;;20.30;99.90;;;;;;4963313;28;20192;-64
2023/09/12 06:48:24;;;;;;;13.33;11.10;;;20.30;99.90;;;;;;4962464;28;20227;-65
2023/09/12 06:50:50;;;;;;;14.83;11.63;;;20.40;99.90;;;;;;4962618;28;20184;-64
2023/09/12 06:53:16;;;;;;;11.63;10.53;;;20.30;99.90;;;;;;4948262;28;20968;-64
2023/09/12 06:55:41;;;;;;;16.47;12.23;;;20.30;99.90;;;;;;4964079;28;20207;-64
2023/09/12 06:58:07;;;;;;;16.23;11.33;;;20.30;99.90;;;;;;4962363;28;20192;-64
2023/09/12 07:00:33;;;;;;;12.70;10.80;;;20.20;99.90;;;;;;4962902;28;20264;-64
2023/09/12 07:02:59;;;;;;;12.40;10.67;;;20.20;99.90;;;;;;4959293;28;20459;-64
2023/09/12 07:05:24;;;;;;;11.53;10.33;;;20.20;99.90;;;;;;4960486;28;20202;-64
2023/09/12 07:07:52;;;;;;;12.73;10.83;;;20.20;99.90;;;;;;4963551;28;20227;-64
2023/09/12 07:10:17;;;;;;;12.27;10.93;;;20.20;99.90;;;;;;4954833;28;20561;-64
2023/09/12 07:12:43;;;;;;;10.73;9.60;;;20.10;99.90;;;;;;4963455;28;20439;-64
2023/09/12 07:15:09;;;;;;;15.73;11.10;;;20.00;99.90;;;;;;4963388;28;20208;-64
2023/09/12 07:17:35;;;;;;;12.37;9.90;;;20.00;99.90;;;;;;4962198;28;20180;-64
2023/09/12 07:20:00;;;;;;;9.77;8.87;;;20.00;99.90;;;;;;4963954;28;20436;-64
2023/09/12 07:22:26;;;;;;;9.80;8.40;;;20.00;99.90;;;;;;4962857;28;20196;-64
2023/09/12 07:24:52;;;;;;;8.13;7.33;;;20.00;99.90;;;;;;4962071;28;21055;-64
2023/09/12 07:27:17;;;;;;;11.00;7.00;;;20.00;99.90;;;;;;4961763;28;20189;-64
2023/09/12 07:29:43;;;;;;;7.70;6.50;;;20.10;99.90;;;;;;4963001;28;20218;-64
2023/09/12 07:32:09;;;;;;;7.13;6.43;;;20.10;99.90;;;;;;4971574;28;20195;-64
2023/09/12 07:34:34;;;;;;;10.17;6.80;;;20.10;99.90;;;;;;4951352;28;21019;-64
2023/09/12 07:37:01;;;;;;;7.97;6.20;;;20.10;99.90;;;;;;4929934;28;20680;-64
2023/09/12 07:39:26;;;;;;;7.40;6.70;;;20.00;99.90;;;;;;4964169;28;20184;-64
2023/09/12 07:41:52;;;;;;;8.53;7.67;;;19.90;99.90;;;;;;4963097;28;20993;-64
2023/09/12 07:44:18;;;;;;;8.97;7.03;;;20.00;99.90;;;;;;4971465;28;20230;-64
2023/09/12 07:46:43;;;;;;;9.90;7.63;;;20.00;99.90;;;;;;4963338;28;20180;-64
2023/09/12 07:49:09;;;;;;;8.03;7.23;;;20.00;99.90;;;;;;4964136;28;20220;-64
2023/09/12 07:51:35;;;;;;;7.80;7.10;;;20.10;99.90;;;;;;4963750;28;20866;-64
2023/09/12 07:54:01;;;;;;;8.57;7.77;;;20.10;99.90;;;;;;4967629;28;20845;-64
2023/09/12 07:56:27;;;;;;;9.87;8.87;;;20.20;99.90;;;;;;4966310;28;20483;-64
2023/09/12 07:58:53;;;;;;;10.00;9.00;;;20.20;99.90;;;;;;4973343;28;20485;-64
2023/09/12 08:01:19;;;;;;;10.10;9.10;;;20.20;99.90;;;;;;4971671;28;20187;-64
2023/09/12 08:03:44;;;;;;;11.43;10.33;;;20.20;99.90;;;;;;4968153;28;20184;-64
2023/09/12 08:06:10;;;;;;;13.27;10.93;;;20.30;99.90;;;;;;4967889;28;20192;-64
2023/09/12 08:08:36;;;;;;;14.13;11.03;;;20.30;99.90;;;;;;4967854;28;20212;-64
2023/09/12 08:11:02;;;;;;;12.60;11.27;;;20.40;99.90;;;;;;4967041;28;20212;-64
2023/09/12 08:13:28;;;;;;;12.90;11.40;;;20.50;99.90;;;;;;4966948;28;20227;-64
2023/09/12 08:15:55;;;;;;;10.70;9.73;;;20.50;99.90;;;;;;4967161;28;20555;-64
2023/09/12 08:18:20;;;;;;;9.77;8.97;;;20.60;99.90;;;;;;4968766;28;20458;-64
2023/09/12 08:20:46;;;;;;;11.57;8.50;;;20.60;99.90;;;;;;4967015;28;20427;-64
2023/09/12 08:23:11;;;;;;;7.90;7.10;;;20.70;99.90;;;;;;4967577;28;20200;-64
2023/09/12 08:25:38;;;;;;;9.30;7.23;;;20.70;99.90;;;;;;4966450;28;20227;-64
2023/09/12 08:28:04;;;;;;;10.70;6.63;;;20.70;99.90;;;;;;4967995;28;20247;-64
2023/09/12 08:30:30;;;;;;;8.87;6.20;;;20.70;99.90;;;;;;4965991;28;20535;-64
2023/09/12 08:32:56;;;;;;;6.27;5.60;;;20.70;99.90;;;;;;4967042;28;20203;-64
2023/09/12 08:35:22;;;;;;;9.27;6.63;;;20.70;99.90;;;;;;4972428;28;20195;-63
2023/09/12 08:37:47;;;;;;;7.00;6.37;;;20.70;99.90;;;;;;4960433;28;20528;-64
2023/09/12 08:40:13;;;;;;;5.90;5.33;;;20.60;99.90;;;;;;4967323;28;20201;-64
2023/09/12 08:42:44;;;;;;;6.10;5.53;;;20.60;99.90;;;;;;4969497;28;20199;-64
2023/09/12 08:45:17;;;;;;;8.20;5.80;;;20.60;99.90;;;;;;4966841;28;20447;-64
2023/09/12 08:47:51;;;;;;;5.87;5.23;;;20.60;99.90;;;;;;4966290;28;20487;-64
2023/09/12 08:50:17;;;;;;;6.43;4.53;;;20.50;99.90;;;;;;4968111;28;20852;-64
2023/09/12 08:52:44;;;;;;;5.70;5.10;;;20.50;99.90;;;;;;4966298;28;21370;-65
2023/09/12 08:55:11;;;;;;;5.50;4.73;;;20.50;99.90;;;;;;4953840;28;20483;-64
2023/09/12 08:57:50;;;;;;;5.20;4.43;;;20.60;99.90;;;;;;4965751;28;20436;-64
2023/09/12 09:00:16;;;;;;;4.90;4.50;;;20.50;99.90;;;;;;4966662;28;20446;-64
2023/09/12 09:02:43;;;;;;;5.93;4.90;;;20.50;99.90;;;;;;4948540;28;20443;-64
2023/09/12 09:05:10;;;;;;;5.47;4.97;;;20.60;99.90;;;;;;4966617;28;20439;-64
2023/09/12 09:07:41;;;;;;;6.50;5.20;;;20.60;99.90;;;;;;4965275;28;20486;-64
2023/09/12 09:10:10;;;;;;;5.83;5.33;;;20.70;99.90;;;;;;4966536;28;20463;-64
2023/09/12 09:12:39;;;;;;;6.27;5.20;;;20.80;99.90;;;;;;4965801;28;20466;-64
2023/09/12 09:15:22;;;;;;;7.40;5.53;;;20.90;99.90;;;;;;4966546;28;20428;-64
2023/09/12 09:17:50;;;;;;;6.50;5.90;;;21.00;99.90;;;;;;4959776;28;20440;-64
2023/09/12 09:20:45;;;;;;;6.83;6.23;;;21.10;99.90;;;;;;4966271;28;20486;-64
2023/09/12 09:23:10;;;;;;;8.90;7.87;;;21.30;99.90;;;;;;4964199;28;20984;-64
2023/09/12 09:25:40;;;;;;;11.00;9.73;;;21.60;99.90;;;;;;4965413;28;20444;-65
2023/09/12 09:28:19;;;;;;;11.20;10.10;;;21.70;99.90;;;;;;4966423;28;20621;-64
2023/09/12 09:30:47;;;;;;;12.27;11.17;;;22.00;99.90;;;;;;4963000;28;20452;-64
2023/09/12 09:33:14;;;;;;;11.30;10.27;;;22.20;99.90;;;;;;4971897;28;20434;-64
2023/09/12 09:35:45;;;;;;;13.07;11.00;;;22.30;99.90;;;;;;4965599;28;20425;-64
2023/09/12 09:38:16;;;;;;;13.93;12.73;;;22.50;99.90;;;;;;4970487;28;20435;-65
2023/09/12 09:40:45;;;;;;;12.50;11.40;;;22.60;99.90;;;;;;4970587;28;20444;-64
2023/09/12 09:43:11;;;;;;;12.67;11.53;;;22.80;99.90;;;;;;4966061;28;20443;-63
2023/09/12 09:45:44;;;;;;;13.23;12.03;;;22.90;99.90;;;;;;4966248;28;20480;-64
2023/09/12 09:48:17;;;;;;;10.93;9.83;;;23.10;99.90;;;;;;4965993;28;20993;-64
2023/09/12 09:50:42;;;;;;;13.50;11.87;;;23.20;99.90;;;;;;4964727;28;20513;-65
2023/09/12 09:53:10;;;;;;;13.50;12.20;;;23.30;99.90;;;;;;4966359;28;20452;-65
2023/09/12 09:55:36;;;;;;;15.40;14.00;;;23.30;99.90;;;;;;4970130;28;20207;-64
2023/09/12 09:58:02;;;;;;;14.20;12.83;;;23.30;99.90;;;;;;4965190;28;20452;-64
2023/09/12 10:00:31;;;;;;;13.43;12.10;;;23.30;99.90;;;;;;4964497;28;20548;-64
2023/09/12 10:02:58;;;;;;;13.00;11.77;;;23.20;99.90;;;;;;4965028;28;20817;-64
2023/09/12 10:05:23;;;;;;;15.00;12.77;;;23.10;99.90;;;;;;4964318;28;20486;-64
2023/09/12 10:07:51;;;;;;;11.50;10.50;;;22.90;99.90;;;;;;4965594;28;21333;-64
2023/09/12 10:10:18;;;;;;;12.77;11.63;;;22.90;99.90;;;;;;4964567;28;20298;-64
2023/09/12 10:12:53;;;;;;;13.47;12.17;;;22.80;99.90;;;;;;4965357;28;20442;-64
2023/09/12 10:15:22;;;;;;;13.70;12.50;;;22.80;99.90;;;;;;4964184;28;20435;-64
2023/09/12 10:17:55;;;;;;;12.23;11.10;;;22.90;99.90;;;;;;4965909;28;20432;-64
2023/09/12 10:20:35;;;;;;;12.17;10.97;;;23.00;99.90;;;;;;4964416;28;20510;-63
2023/09/12 10:23:00;;;;;;;13.83;12.60;;;23.00;99.90;;;;;;4965560;28;20434;-64
2023/09/12 10:25:29;;;;;;;13.60;12.40;;;23.10;99.90;;;;;;4963514;28;20459;-64
2023/09/12 10:27:56;;;;;;;16.80;15.30;;;23.10;99.90;;;;;;4965124;28;20328;-64
2023/09/12 10:30:23;;;;;;;13.67;12.50;;;23.10;99.90;;;;;;4974168;28;20455;-63
2023/09/12 10:32:50;;;;;;;12.37;11.10;;;23.20;99.90;;;;;;4966328;28;20458;-64
2023/09/12 10:35:16;;;;;;;13.03;11.97;;;23.40;99.90;;;;;;4963523;28;20448;-63
2023/09/12 10:37:44;;;;;;;10.60;9.70;;;23.60;99.90;;;;;;4964245;28;20525;-63
2023/09/12 10:40:12;;;;;;;10.53;9.53;;;23.70;99.90;;;;;;4964629;28;20428;-63
2023/09/12 10:42:39;;;;;;;10.30;9.40;;;23.90;99.90;;;;;;4963484;28;20788;-63
2023/09/12 10:45:08;;;;;;;10.30;9.50;;;23.90;99.90;;;;;;4964597;28;20446;-63
2023/09/12 10:47:35;;;;;;;11.63;10.43;;;23.90;99.90;;;;;;4963881;28;20486;-64
2023/09/12 10:50:02;;;;;;;8.93;8.20;;;24.00;99.90;;;;;;4965002;28;20432;-64
2023/09/12 10:52:28;;;;;;;10.07;9.17;;;24.00;99.90;;;;;;4964311;28;21686;-63
2023/09/12 10:54:55;;;;;;;9.83;8.97;;;24.00;99.90;;;;;;4964978;28;20444;-64
2023/09/12 10:57:20;;;;;;;9.50;8.70;;;24.20;99.90;;;;;;4964211;28;20546;-64
2023/09/12 11:00:03;;;;;;;10.93;9.37;;;24.40;99.90;;;;;;4965269;28;20583;-63
2023/09/12 11:02:29;;;;;;;9.37;8.53;;;24.60;99.90;;;;;;4964101;28;20188;-63
2023/09/12 11:04:56;;;;;;;9.00;8.20;;;24.70;99.90;;;;;;4964631;28;21249;-64
2023/09/12 11:07:31;;;;;;;8.53;7.83;;;24.90;99.90;;;;;;4963583;28;20729;-64
2023/09/12 11:10:15;;;;;;;6.77;6.10;;;24.90;99.90;;;;;;4964503;28;20455;-64
2023/09/12 11:12:43;;;;;;;8.93;7.07;;;25.00;99.90;;;;;;4964221;28;21241;-63
2023/09/12 11:15:13;;;;;;;7.37;6.67;;;25.00;99.90;;;;;;4963960;28;20453;-64
2023/09/12 11:17:43;;;;;;;7.57;6.87;;;25.00;99.90;;;;;;4963151;28;20472;-64
2023/09/12 11:20:12;;;;;;;7.20;6.60;;;25.10;99.90;;;;;;4964156;28;20436;-64
2023/09/12 11:22:39;;;;;;;6.40;5.90;;;25.00;99.90;;;;;;4964370;28;20446;-64
2023/09/12 11:25:26;;;;;;;8.37;6.03;;;25.00;99.90;;;;;;4963959;28;20440;-64
2023/09/12 11:27:52;;;;;;;5.73;5.20;;;25.00;99.90;;;;;;4963982;28;21212;-64
2023/09/12 11:30:23;;;;;;;7.00;6.10;;;25.00;99.90;;;;;;4963494;28;20459;-64
2023/09/12 11:32:51;;;;;;;8.50;7.50;;;24.90;99.90;;;;;;4964185;28;20491;-63
2023/09/12 11:35:25;;;;;;;5.57;5.07;;;24.90;99.90;;;;;;4963092;28;20447;-64
2023/09/12 11:37:59;;;;;;;8.63;6.43;;;24.80;99.90;;;;;;4946805;28;20443;-64
2023/09/12 11:40:34;;;;;;;7.13;6.53;;;24.80;99.90;;;;;;4963143;28;20444;-63
2023/09/12 11:43:01;;;;;;;7.10;6.20;;;24.70;99.90;;;;;;4964541;28;20439;-64
2023/09/12 11:45:27;;;;;;;6.57;5.97;;;24.70;99.90;;;;;;4963075;28;20431;-64
2023/09/12 11:47:54;;;;;;;7.70;5.70;;;24.70;99.90;;;;;;4963677;28;20515;-64
2023/09/12 11:50:30;;;;;;;6.23;5.63;;;24.70;99.90;;;;;;4962965;28;20436;-64
2023/09/12 11:52:59;;;;;;;6.13;5.63;;;24.70;99.90;;;;;;4946957;28;20443;-64
2023/09/12 11:55:26;;;;;;;7.17;6.47;;;24.70;99.90;;;;;;4963157;28;20472;-64
2023/09/12 11:57:51;;;;;;;7.20;6.40;;;24.80;99.90;;;;;;4964298;28;20432;-64
2023/09/12 12:00:19;;;;;;;6.97;6.13;;;24.90;99.90;;;;;;4946105;28;21129;-64
2023/09/12 12:02:45;;;;;;;7.90;7.03;;;25.10;99.90;;;;;;4964134;28;20199;-64
2023/09/12 12:05:12;;;;;;;6.87;6.23;;;25.00;99.90;;;;;;4963442;28;20435;-64
2023/09/12 12:07:39;;;;;;;7.43;6.83;;;25.00;99.90;;;;;;4964131;28;20502;-64
2023/09/12 12:10:05;;;;;;;6.37;5.67;;;25.10;99.90;;;;;;4963473;28;20450;-64
2023/09/12 12:12:31;;;;;;;5.90;5.27;;;25.10;99.90;;;;;;4963913;28;20850;-64
2023/09/12 12:14:57;;;;;;;7.77;7.00;;;25.10;99.90;;;;;;4964000;28;20463;-64
2023/09/12 12:17:22;;;;;;;6.20;5.70;;;25.10;99.90;;;;;;4963139;28;21108;-64
2023/09/12 12:19:48;;;;;;;5.27;4.87;;;25.20;99.90;;;;;;4964120;28;20226;-64
2023/09/12 12:22:14;;;;;;;5.73;5.20;;;25.30;99.90;;;;;;4962993;28;20316;-63
2023/09/12 12:24:42;;;;;;;7.90;5.10;;;25.40;99.90;;;;;;4963926;28;20196;-64
2023/09/12 12:27:09;;;;;;;5.67;5.07;;;25.40;99.90;;;;;;4963666;28;20310;-64
2023/09/12 12:29:37;;;;;;;5.33;4.93;;;25.50;99.90;;;;;;4963619;28;21252;-64
2023/09/12 12:32:05;;;;;;;7.00;6.30;;;25.50;99.90;;;;;;4963506;28;21117;-64
2023/09/12 12:34:31;;;;;;;5.83;5.37;;;25.60;99.90;;;;;;4963219;28;20434;-64
2023/09/12 12:36:57;;;;;;;6.80;6.23;;;25.70;99.90;;;;;;4963742;28;20431;-64
2023/09/12 12:39:23;;;;;;;6.30;5.77;;;25.70;99.90;;;;;;4966143;28;20436;-64
2023/09/12 12:41:54;;;;;;;6.70;5.80;;;25.70;99.90;;;;;;4967439;28;20478;-64